sensor_id;sensor_type;location;lat;lon;timestamp;temperature;humidity
67186;HTU21D;54116;53.518;49.398;2023-02-28T00:00:25;-1.61;86.92
67186;HTU21D;54116;53.518;49.398;2023-02-28T00:02:51;-1.64;87.10
67186;HTU21D;54116;53.518;49.398;2023-02-28T00:05:21;-1.63;88.29
67186;HTU21D;54116;53.518;49.398;2023-02-28T00:07:48;-1.63;87.67
67186;HTU21D;54116;53.518;49.398;2023-02-28T00:10:21;-1.65;87.74
67186;HTU21D;54116;53.518;49.398;2023-02-28T00:12:49;-1.70;88.83
67186;HTU21D;54116;53.518;49.398;2023-02-28T00:15:17;-1.71;88.92
67186;HTU21D;54116;53.518;49.398;2023-02-28T00:17:44;-1.72;88.73
67186;HTU21D;54116;53.518;49.398;2023-02-28T00:20:12;-1.74;88.88
67186;HTU21D;54116;53.518;49.398;2023-02-28T00:22:40;-1.75;90.49
67186;HTU21D;54116;53.518;49.398;2023-02-28T00:25:12;-1.77;89.39
67186;HTU21D;54116;53.518;49.398;2023-02-28T00:27:40;-1.77;89.30
67186;HTU21D;54116;53.518;49.398;2023-02-28T00:30:09;-1.78;89.41
67186;HTU21D;54116;53.518;49.398;2023-02-28T00:32:36;-1.79;89.41
67186;HTU21D;54116;53.518;49.398;2023-02-28T00:35:03;-1.78;87.74
67186;HTU21D;54116;53.518;49.398;2023-02-28T00:37:29;-1.77;87.70
67186;HTU21D;54116;53.518;49.398;2023-02-28T00:39:56;-1.75;88.89
67186;HTU21D;54116;53.518;49.398;2023-02-28T00:42:23;-1.77;88.63
67186;HTU21D;54116;53.518;49.398;2023-02-28T00:44:49;-1.78;88.99
67186;HTU21D;54116;53.518;49.398;2023-02-28T00:47:16;-1.78;88.10
67186;HTU21D;54116;53.518;49.398;2023-02-28T00:49:42;-1.79;88.93
67186;HTU21D;54116;53.518;49.398;2023-02-28T00:52:09;-1.79;90.08
67186;HTU21D;54116;53.518;49.398;2023-02-28T00:54:35;-1.80;88.57
67186;HTU21D;54116;53.518;49.398;2023-02-28T00:57:01;-1.80;88.78
67186;HTU21D;54116;53.518;49.398;2023-02-28T00:59:27;-1.80;89.05
67186;HTU21D;54116;53.518;49.398;2023-02-28T01:01:54;-1.80;90.34
67186;HTU21D;54116;53.518;49.398;2023-02-28T01:04:20;-1.79;89.99
67186;HTU21D;54116;53.518;49.398;2023-02-28T01:06:47;-1.79;90.08
67186;HTU21D;54116;53.518;49.398;2023-02-28T01:09:13;-1.80;87.48
67186;HTU21D;54116;53.518;49.398;2023-02-28T01:11:39;-1.78;89.52
67186;HTU21D;54116;53.518;49.398;2023-02-28T01:14:08;-1.82;90.01
67186;HTU21D;54116;53.518;49.398;2023-02-28T01:16:34;-1.85;90.05
67186;HTU21D;54116;53.518;49.398;2023-02-28T01:19:01;-1.85;89.99
67186;HTU21D;54116;53.518;49.398;2023-02-28T01:21:27;-1.85;88.41
67186;HTU21D;54116;53.518;49.398;2023-02-28T01:23:57;-1.85;88.30
67186;HTU21D;54116;53.518;49.398;2023-02-28T01:26:24;-1.83;89.13
67186;HTU21D;54116;53.518;49.398;2023-02-28T01:28:51;-1.83;88.62
67186;HTU21D;54116;53.518;49.398;2023-02-28T01:31:18;-1.83;90.87
67186;HTU21D;54116;53.518;49.398;2023-02-28T01:33:45;-1.85;90.15
67186;HTU21D;54116;53.518;49.398;2023-02-28T01:36:14;-1.84;89.49
67186;HTU21D;54116;53.518;49.398;2023-02-28T01:38:42;-1.86;88.44
67186;HTU21D;54116;53.518;49.398;2023-02-28T01:41:25;-1.87;88.34
67186;HTU21D;54116;53.518;49.398;2023-02-28T01:47:05;-1.87;88.07
67186;HTU21D;54116;53.518;49.398;2023-02-28T01:49:32;-1.84;86.78
67186;HTU21D;54116;53.518;49.398;2023-02-28T01:51:58;-1.83;86.67
67186;HTU21D;54116;53.518;49.398;2023-02-28T01:54:29;-1.85;88.45
67186;HTU21D;54116;53.518;49.398;2023-02-28T01:57:19;-1.90;87.86
67186;HTU21D;54116;53.518;49.398;2023-02-28T01:59:54;-1.91;87.37
67186;HTU21D;54116;53.518;49.398;2023-02-28T02:02:23;-1.91;88.15
67186;HTU21D;54116;53.518;49.398;2023-02-28T02:04:56;-1.91;88.72
67186;HTU21D;54116;53.518;49.398;2023-02-28T02:07:25;-1.92;87.93
67186;HTU21D;54116;53.518;49.398;2023-02-28T02:10:10;-1.92;87.66
67186;HTU21D;54116;53.518;49.398;2023-02-28T02:15:16;-1.94;87.19
67186;HTU21D;54116;53.518;49.398;2023-02-28T02:17:49;-1.93;83.52
67186;HTU21D;54116;53.518;49.398;2023-02-28T02:26:38;-1.93;84.20
67186;HTU21D;54116;53.518;49.398;2023-02-28T02:29:22;-1.95;84.22
67186;HTU21D;54116;53.518;49.398;2023-02-28T02:34:42;-2.00;84.65
67186;HTU21D;54116;53.518;49.398;2023-02-28T02:40:14;-2.00;84.10
67186;HTU21D;54116;53.518;49.398;2023-02-28T02:45:59;-2.03;83.53
67186;HTU21D;54116;53.518;49.398;2023-02-28T02:48:30;-2.04;86.41
67186;HTU21D;54116;53.518;49.398;2023-02-28T02:50:59;-2.06;84.92
67186;HTU21D;54116;53.518;49.398;2023-02-28T02:53:35;-2.06;85.57
67186;HTU21D;54116;53.518;49.398;2023-02-28T02:56:03;-2.07;85.70
67186;HTU21D;54116;53.518;49.398;2023-02-28T02:58:35;-2.06;85.38
67186;HTU21D;54116;53.518;49.398;2023-02-28T03:01:10;-2.06;85.39
67186;HTU21D;54116;53.518;49.398;2023-02-28T03:03:40;-2.06;86.77
67186;HTU21D;54116;53.518;49.398;2023-02-28T03:06:06;-2.07;85.32
67186;HTU21D;54116;53.518;49.398;2023-02-28T03:08:37;-2.08;84.15
67186;HTU21D;54116;53.518;49.398;2023-02-28T03:11:06;-2.09;85.17
67186;HTU21D;54116;53.518;49.398;2023-02-28T03:19:31;-2.16;85.85
67186;HTU21D;54116;53.518;49.398;2023-02-28T03:24:50;-2.15;86.55
67186;HTU21D;54116;53.518;49.398;2023-02-28T03:27:29;-2.17;86.35
67186;HTU21D;54116;53.518;49.398;2023-02-28T03:30:13;-2.17;84.10
67186;HTU21D;54116;53.518;49.398;2023-02-28T03:33:07;-2.17;86.42
67186;HTU21D;54116;53.518;49.398;2023-02-28T03:35:39;-2.19;84.77
67186;HTU21D;54116;53.518;49.398;2023-02-28T03:38:15;-2.20;84.68
67186;HTU21D;54116;53.518;49.398;2023-02-28T03:40:48;-2.21;85.27
67186;HTU21D;54116;53.518;49.398;2023-02-28T03:43:22;-2.21;85.26
67186;HTU21D;54116;53.518;49.398;2023-02-28T03:45:50;-2.22;85.87
67186;HTU21D;54116;53.518;49.398;2023-02-28T03:50:45;-2.19;85.51
67186;HTU21D;54116;53.518;49.398;2023-02-28T03:55:52;-2.20;86.29
67186;HTU21D;54116;53.518;49.398;2023-02-28T03:58:27;-2.18;86.24
67186;HTU21D;54116;53.518;49.398;2023-02-28T04:01:19;-2.19;86.64
67186;HTU21D;54116;53.518;49.398;2023-02-28T04:03:46;-2.16;86.62
67186;HTU21D;54116;53.518;49.398;2023-02-28T04:06:19;-2.16;86.70
67186;HTU21D;54116;53.518;49.398;2023-02-28T04:08:47;-2.15;86.39
67186;HTU21D;54116;53.518;49.398;2023-02-28T04:11:28;-2.16;86.32
67186;HTU21D;54116;53.518;49.398;2023-02-28T04:13:56;-2.16;86.19
67186;HTU21D;54116;53.518;49.398;2023-02-28T04:16:22;-2.14;86.92
67186;HTU21D;54116;53.518;49.398;2023-02-28T04:18:49;-2.12;86.48
67186;HTU21D;54116;53.518;49.398;2023-02-28T04:21:15;-2.09;86.47
67186;HTU21D;54116;53.518;49.398;2023-02-28T04:23:41;-2.05;87.70
67186;HTU21D;54116;53.518;49.398;2023-02-28T04:26:08;-2.06;85.02
67186;HTU21D;54116;53.518;49.398;2023-02-28T04:28:37;-2.07;86.28
67186;HTU21D;54116;53.518;49.398;2023-02-28T04:31:04;-2.06;86.49
67186;HTU21D;54116;53.518;49.398;2023-02-28T04:33:32;-2.04;86.11
67186;HTU21D;54116;53.518;49.398;2023-02-28T04:36:06;-2.02;86.13
67186;HTU21D;54116;53.518;49.398;2023-02-28T04:38:35;-2.04;84.84
67186;HTU21D;54116;53.518;49.398;2023-02-28T04:41:04;-2.07;85.98
67186;HTU21D;54116;53.518;49.398;2023-02-28T04:43:31;-2.04;85.62
67186;HTU21D;54116;53.518;49.398;2023-02-28T04:46:00;-2.03;86.74
67186;HTU21D;54116;53.518;49.398;2023-02-28T04:48:28;-1.99;85.59
67186;HTU21D;54116;53.518;49.398;2023-02-28T04:50:55;-1.97;86.90
67186;HTU21D;54116;53.518;49.398;2023-02-28T04:53:21;-1.98;86.12
67186;HTU21D;54116;53.518;49.398;2023-02-28T04:55:48;-1.98;86.22
67186;HTU21D;54116;53.518;49.398;2023-02-28T04:58:14;-1.95;86.74
67186;HTU21D;54116;53.518;49.398;2023-02-28T05:00:40;-1.94;86.98
67186;HTU21D;54116;53.518;49.398;2023-02-28T05:03:07;-1.91;86.55
67186;HTU21D;54116;53.518;49.398;2023-02-28T05:05:33;-1.89;86.53
67186;HTU21D;54116;53.518;49.398;2023-02-28T05:07:59;-1.93;86.96
67186;HTU21D;54116;53.518;49.398;2023-02-28T05:10:26;-2.03;85.13
67186;HTU21D;54116;53.518;49.398;2023-02-28T05:12:52;-1.99;87.22
67186;HTU21D;54116;53.518;49.398;2023-02-28T05:15:18;-1.91;87.06
67186;HTU21D;54116;53.518;49.398;2023-02-28T05:17:45;-1.94;84.25
67186;HTU21D;54116;53.518;49.398;2023-02-28T05:20:11;-1.94;84.94
67186;HTU21D;54116;53.518;49.398;2023-02-28T05:22:42;-1.88;84.47
67186;HTU21D;54116;53.518;49.398;2023-02-28T05:25:16;-1.82;84.42
67186;HTU21D;54116;53.518;49.398;2023-02-28T05:27:43;-1.83;84.04
67186;HTU21D;54116;53.518;49.398;2023-02-28T05:30:09;-1.91;82.02
67186;HTU21D;54116;53.518;49.398;2023-02-28T05:32:37;-1.82;81.64
67186;HTU21D;54116;53.518;49.398;2023-02-28T05:35:04;-1.65;81.43
67186;HTU21D;54116;53.518;49.398;2023-02-28T05:37:31;-1.46;80.90
67186;HTU21D;54116;53.518;49.398;2023-02-28T05:39:57;-1.32;79.38
67186;HTU21D;54116;53.518;49.398;2023-02-28T05:42:23;-1.26;78.85
67186;HTU21D;54116;53.518;49.398;2023-02-28T05:44:50;-1.12;78.91
67186;HTU21D;54116;53.518;49.398;2023-02-28T05:47:16;-1.13;78.24
67186;HTU21D;54116;53.518;49.398;2023-02-28T05:49:42;-1.18;75.51
67186;HTU21D;54116;53.518;49.398;2023-02-28T05:52:09;-1.11;77.15
67186;HTU21D;54116;53.518;49.398;2023-02-28T05:54:36;-1.05;78.37
67186;HTU21D;54116;53.518;49.398;2023-02-28T05:57:02;-0.83;77.79
67186;HTU21D;54116;53.518;49.398;2023-02-28T05:59:28;-0.73;77.40
67186;HTU21D;54116;53.518;49.398;2023-02-28T06:01:55;-0.76;75.98
67186;HTU21D;54116;53.518;49.398;2023-02-28T06:04:21;-0.61;74.90
67186;HTU21D;54116;53.518;49.398;2023-02-28T06:06:48;-0.34;76.13
67186;HTU21D;54116;53.518;49.398;2023-02-28T06:09:16;0.02;72.78
67186;HTU21D;54116;53.518;49.398;2023-02-28T06:11:43;0.08;70.52
67186;HTU21D;54116;53.518;49.398;2023-02-28T06:14:15;-0.19;72.54
67186;HTU21D;54116;53.518;49.398;2023-02-28T06:16:42;-0.58;72.02
67186;HTU21D;54116;53.518;49.398;2023-02-28T06:19:08;-0.58;74.86
67186;HTU21D;54116;53.518;49.398;2023-02-28T06:21:35;-0.23;75.54
67186;HTU21D;54116;53.518;49.398;2023-02-28T06:24:03;0.03;72.59
67186;HTU21D;54116;53.518;49.398;2023-02-28T06:26:30;0.15;72.94
67186;HTU21D;54116;53.518;49.398;2023-02-28T06:28:56;0.61;73.15
67186;HTU21D;54116;53.518;49.398;2023-02-28T06:31:23;0.61;73.25
67186;HTU21D;54116;53.518;49.398;2023-02-28T06:33:51;0.77;70.48
67186;HTU21D;54116;53.518;49.398;2023-02-28T06:36:18;0.78;70.96
67186;HTU21D;54116;53.518;49.398;2023-02-28T06:38:44;0.73;69.38
67186;HTU21D;54116;53.518;49.398;2023-02-28T06:41:11;0.51;71.93
67186;HTU21D;54116;53.518;49.398;2023-02-28T06:43:41;0.66;69.73
67186;HTU21D;54116;53.518;49.398;2023-02-28T06:46:10;0.75;67.65
67186;HTU21D;54116;53.518;49.398;2023-02-28T06:48:37;0.20;69.92
67186;HTU21D;54116;53.518;49.398;2023-02-28T06:51:05;0.44;73.93
67186;HTU21D;54116;53.518;49.398;2023-02-28T06:53:33;0.81;73.30
67186;HTU21D;54116;53.518;49.398;2023-02-28T06:55:59;0.40;70.97
67186;HTU21D;54116;53.518;49.398;2023-02-28T06:58:25;0.39;73.90
67186;HTU21D;54116;53.518;49.398;2023-02-28T07:00:52;0.58;72.25
67186;HTU21D;54116;53.518;49.398;2023-02-28T07:03:18;0.63;73.30
67186;HTU21D;54116;53.518;49.398;2023-02-28T07:05:44;0.72;71.16
67186;HTU21D;54116;53.518;49.398;2023-02-28T07:08:11;0.52;71.97
67186;HTU21D;54116;53.518;49.398;2023-02-28T07:10:38;0.36;73.40
67186;HTU21D;54116;53.518;49.398;2023-02-28T07:13:05;0.50;72.43
67186;HTU21D;54116;53.518;49.398;2023-02-28T07:15:32;0.81;70.76
67186;HTU21D;54116;53.518;49.398;2023-02-28T07:17:58;1.06;69.89
67186;HTU21D;54116;53.518;49.398;2023-02-28T07:20:24;0.86;70.52
67186;HTU21D;54116;53.518;49.398;2023-02-28T07:22:51;0.91;69.82
67186;HTU21D;54116;53.518;49.398;2023-02-28T07:25:23;1.09;68.38
67186;HTU21D;54116;53.518;49.398;2023-02-28T07:27:50;1.17;68.84
67186;HTU21D;54116;53.518;49.398;2023-02-28T07:30:17;1.22;68.39
67186;HTU21D;54116;53.518;49.398;2023-02-28T07:32:43;1.23;69.80
67186;HTU21D;54116;53.518;49.398;2023-02-28T07:35:10;1.70;66.43
67186;HTU21D;54116;53.518;49.398;2023-02-28T07:37:36;1.72;68.52
67186;HTU21D;54116;53.518;49.398;2023-02-28T07:40:06;1.80;67.19
67186;HTU21D;54116;53.518;49.398;2023-02-28T07:42:36;1.91;66.51
67186;HTU21D;54116;53.518;49.398;2023-02-28T07:45:04;1.76;67.75
67186;HTU21D;54116;53.518;49.398;2023-02-28T07:47:31;1.91;67.65
67186;HTU21D;54116;53.518;49.398;2023-02-28T07:49:58;1.71;69.55
67186;HTU21D;54116;53.518;49.398;2023-02-28T07:52:25;1.92;70.04
67186;HTU21D;54116;53.518;49.398;2023-02-28T07:54:52;1.61;68.68
67186;HTU21D;54116;53.518;49.398;2023-02-28T07:57:18;1.37;70.23
67186;HTU21D;54116;53.518;49.398;2023-02-28T07:59:44;0.99;69.26
67186;HTU21D;54116;53.518;49.398;2023-02-28T08:02:12;1.13;70.77
67186;HTU21D;54116;53.518;49.398;2023-02-28T08:04:39;1.36;70.35
67186;HTU21D;54116;53.518;49.398;2023-02-28T08:07:06;1.31;68.81
67186;HTU21D;54116;53.518;49.398;2023-02-28T08:09:32;1.13;70.38
67186;HTU21D;54116;53.518;49.398;2023-02-28T08:12:00;1.13;69.20
67186;HTU21D;54116;53.518;49.398;2023-02-28T08:14:26;1.10;69.23
67186;HTU21D;54116;53.518;49.398;2023-02-28T08:16:52;0.95;70.49
67186;HTU21D;54116;53.518;49.398;2023-02-28T08:19:18;0.92;70.46
67186;HTU21D;54116;53.518;49.398;2023-02-28T08:21:45;1.03;71.71
67186;HTU21D;54116;53.518;49.398;2023-02-28T08:24:11;0.93;71.47
67186;HTU21D;54116;53.518;49.398;2023-02-28T08:26:37;0.93;71.16
67186;HTU21D;54116;53.518;49.398;2023-02-28T08:29:11;1.22;69.74
67186;HTU21D;54116;53.518;49.398;2023-02-28T08:31:37;1.41;71.58
67186;HTU21D;54116;53.518;49.398;2023-02-28T08:34:11;1.60;70.20
67186;HTU21D;54116;53.518;49.398;2023-02-28T08:36:39;1.58;69.07
67186;HTU21D;54116;53.518;49.398;2023-02-28T08:39:06;1.36;70.26
67186;HTU21D;54116;53.518;49.398;2023-02-28T08:41:33;1.60;71.37
67186;HTU21D;54116;53.518;49.398;2023-02-28T08:43:59;1.58;69.97
67186;HTU21D;54116;53.518;49.398;2023-02-28T08:46:26;1.93;68.79
67186;HTU21D;54116;53.518;49.398;2023-02-28T08:48:54;2.07;68.38
67186;HTU21D;54116;53.518;49.398;2023-02-28T08:51:21;2.26;66.36
67186;HTU21D;54116;53.518;49.398;2023-02-28T08:53:54;2.24;66.69
67186;HTU21D;54116;53.518;49.398;2023-02-28T08:56:20;2.41;66.08
67186;HTU21D;54116;53.518;49.398;2023-02-28T08:58:49;2.79;65.37
67186;HTU21D;54116;53.518;49.398;2023-02-28T09:01:19;2.72;63.65
67186;HTU21D;54116;53.518;49.398;2023-02-28T09:03:48;2.12;64.11
67186;HTU21D;54116;53.518;49.398;2023-02-28T09:06:16;2.13;67.66
67186;HTU21D;54116;53.518;49.398;2023-02-28T09:08:42;2.47;66.86
67186;HTU21D;54116;53.518;49.398;2023-02-28T09:11:10;2.57;65.18
67186;HTU21D;54116;53.518;49.398;2023-02-28T09:13:36;1.90;64.75
67186;HTU21D;54116;53.518;49.398;2023-02-28T09:16:04;1.54;69.13
67186;HTU21D;54116;53.518;49.398;2023-02-28T09:18:31;1.67;69.26
67186;HTU21D;54116;53.518;49.398;2023-02-28T09:20:57;1.66;67.34
67186;HTU21D;54116;53.518;49.398;2023-02-28T09:23:24;1.49;68.83
67186;HTU21D;54116;53.518;49.398;2023-02-28T09:25:53;1.48;67.33
67186;HTU21D;54116;53.518;49.398;2023-02-28T09:28:20;1.01;69.05
67186;HTU21D;54116;53.518;49.398;2023-02-28T09:30:51;1.06;69.02
67186;HTU21D;54116;53.518;49.398;2023-02-28T09:33:19;1.18;69.76
67186;HTU21D;54116;53.518;49.398;2023-02-28T09:35:49;1.23;67.83
67186;HTU21D;54116;53.518;49.398;2023-02-28T09:38:16;1.10;67.54
67186;HTU21D;54116;53.518;49.398;2023-02-28T09:40:51;0.99;69.68
67186;HTU21D;54116;53.518;49.398;2023-02-28T09:43:22;0.75;67.71
67186;HTU21D;54116;53.518;49.398;2023-02-28T09:45:54;0.63;70.75
67186;HTU21D;54116;53.518;49.398;2023-02-28T09:48:28;0.75;69.87
67186;HTU21D;54116;53.518;49.398;2023-02-28T09:51:02;0.76;70.78
67186;HTU21D;54116;53.518;49.398;2023-02-28T09:53:33;0.89;70.50
67186;HTU21D;54116;53.518;49.398;2023-02-28T09:56:09;0.74;70.19
67186;HTU21D;54116;53.518;49.398;2023-02-28T10:01:43;0.78;72.41
67186;HTU21D;54116;53.518;49.398;2023-02-28T10:06:53;0.99;71.49
67186;HTU21D;54116;53.518;49.398;2023-02-28T10:09:26;0.87;71.27
67186;HTU21D;54116;53.518;49.398;2023-02-28T10:11:57;0.63;71.57
67186;HTU21D;54116;53.518;49.398;2023-02-28T10:14:29;0.44;73.88
67186;HTU21D;54116;53.518;49.398;2023-02-28T10:17:07;0.63;73.96
67186;HTU21D;54116;53.518;49.398;2023-02-28T10:19:42;0.88;74.06
67186;HTU21D;54116;53.518;49.398;2023-02-28T10:22:27;1.33;73.38
67186;HTU21D;54116;53.518;49.398;2023-02-28T10:24:58;1.17;72.60
67186;HTU21D;54116;53.518;49.398;2023-02-28T10:27:32;0.78;74.49
67186;HTU21D;54116;53.518;49.398;2023-02-28T10:30:00;0.64;74.31
67186;HTU21D;54116;53.518;49.398;2023-02-28T10:32:31;0.49;74.79
67186;HTU21D;54116;53.518;49.398;2023-02-28T10:35:07;0.32;75.69
67186;HTU21D;54116;53.518;49.398;2023-02-28T10:37:41;0.10;75.97
67186;HTU21D;54116;53.518;49.398;2023-02-28T10:42:59;0.04;76.92
67186;HTU21D;54116;53.518;49.398;2023-02-28T10:45:28;0.12;77.34
67186;HTU21D;54116;53.518;49.398;2023-02-28T10:48:00;0.17;75.57
67186;HTU21D;54116;53.518;49.398;2023-02-28T10:50:29;0.14;76.98
67186;HTU21D;54116;53.518;49.398;2023-02-28T10:53:29;0.22;74.87
67186;HTU21D;54116;53.518;49.398;2023-02-28T10:56:04;0.02;76.64
67186;HTU21D;54116;53.518;49.398;2023-02-28T10:59:11;0.09;77.04
67186;HTU21D;54116;53.518;49.398;2023-02-28T11:01:47;0.09;77.11
67186;HTU21D;54116;53.518;49.398;2023-02-28T11:07:11;-0.01;75.89
67186;HTU21D;54116;53.518;49.398;2023-02-28T11:09:46;-0.12;77.19
67186;HTU21D;54116;53.518;49.398;2023-02-28T11:12:39;-0.10;77.33
67186;HTU21D;54116;53.518;49.398;2023-02-28T11:15:33;-0.09;76.28
67186;HTU21D;54116;53.518;49.398;2023-02-28T11:20:28;-0.03;77.29
67186;HTU21D;54116;53.518;49.398;2023-02-28T11:22:57;0.20;76.20
67186;HTU21D;54116;53.518;49.398;2023-02-28T11:25:27;0.23;76.05
67186;HTU21D;54116;53.518;49.398;2023-02-28T11:27:57;0.03;76.47
67186;HTU21D;54116;53.518;49.398;2023-02-28T11:30:31;0.04;76.54
67186;HTU21D;54116;53.518;49.398;2023-02-28T11:32:57;0.06;76.85
67186;HTU21D;54116;53.518;49.398;2023-02-28T11:37:57;0.06;77.02
67186;HTU21D;54116;53.518;49.398;2023-02-28T11:40:42;0.17;77.48
67186;HTU21D;54116;53.518;49.398;2023-02-28T11:52:06;0.35;78.14
67186;HTU21D;54116;53.518;49.398;2023-02-28T12:25:47;-0.08;77.33
67186;HTU21D;54116;53.518;49.398;2023-02-28T12:28:19;-0.16;78.55
67186;HTU21D;54116;53.518;49.398;2023-02-28T12:31:11;-0.23;78.36
67186;HTU21D;54116;53.518;49.398;2023-02-28T12:33:48;-0.37;78.72
67186;HTU21D;54116;53.518;49.398;2023-02-28T12:36:19;-0.43;79.62
67186;HTU21D;54116;53.518;49.398;2023-02-28T12:38:55;-0.32;79.21
67186;HTU21D;54116;53.518;49.398;2023-02-28T12:41:29;-0.37;79.43
67186;HTU21D;54116;53.518;49.398;2023-02-28T12:44:05;-0.42;80.36
67186;HTU21D;54116;53.518;49.398;2023-02-28T12:46:41;-0.35;80.75
67186;HTU21D;54116;53.518;49.398;2023-02-28T12:49:19;-0.41;79.73
67186;HTU21D;54116;53.518;49.398;2023-02-28T12:51:52;-0.50;79.85
67186;HTU21D;54116;53.518;49.398;2023-02-28T12:57:09;-0.62;79.12
67186;HTU21D;54116;53.518;49.398;2023-02-28T12:59:41;-0.71;80.46
67186;HTU21D;54116;53.518;49.398;2023-02-28T13:05:19;-0.87;81.38
67186;HTU21D;54116;53.518;49.398;2023-02-28T13:10:57;-1.12;82.78
67186;HTU21D;54116;53.518;49.398;2023-02-28T13:13:25;-1.28;83.53
67186;HTU21D;54116;53.518;49.398;2023-02-28T13:16:12;-1.33;84.64
67186;HTU21D;54116;53.518;49.398;2023-02-28T13:18:40;-1.29;84.64
67186;HTU21D;54116;53.518;49.398;2023-02-28T13:21:32;-1.35;84.57
67186;HTU21D;54116;53.518;49.398;2023-02-28T13:24:02;-1.48;85.59
67186;HTU21D;54116;53.518;49.398;2023-02-28T13:34:41;-1.64;85.91
67186;HTU21D;54116;53.518;49.398;2023-02-28T13:39:57;-1.82;86.76
67186;HTU21D;54116;53.518;49.398;2023-02-28T13:42:47;-1.86;87.25
67186;HTU21D;54116;53.518;49.398;2023-02-28T13:45:25;-1.99;87.70
67186;HTU21D;54116;53.518;49.398;2023-02-28T13:47:56;-2.07;87.98
67186;HTU21D;54116;53.518;49.398;2023-02-28T13:55:48;-2.36;90.32
67186;HTU21D;54116;53.518;49.398;2023-02-28T14:06:29;-2.71;94.62
67186;HTU21D;54116;53.518;49.398;2023-02-28T14:11:45;-2.86;95.20
67186;HTU21D;54116;53.518;49.398;2023-02-28T14:16:57;-3.00;95.65
67186;HTU21D;54116;53.518;49.398;2023-02-28T14:19:27;-3.07;96.24
67186;HTU21D;54116;53.518;49.398;2023-02-28T14:38:23;-3.34;97.23
67186;HTU21D;54116;53.518;49.398;2023-02-28T14:40:51;-3.37;97.18
67186;HTU21D;54116;53.518;49.398;2023-02-28T14:43:25;-3.41;97.25
67186;HTU21D;54116;53.518;49.398;2023-02-28T14:45:57;-3.45;97.07
67186;HTU21D;54116;53.518;49.398;2023-02-28T14:48:24;-3.48;96.91
67186;HTU21D;54116;53.518;49.398;2023-02-28T14:50:56;-3.52;97.33
67186;HTU21D;54116;53.518;49.398;2023-02-28T14:53:26;-3.54;97.30
67186;HTU21D;54116;53.518;49.398;2023-02-28T14:55:53;-3.57;97.55
67186;HTU21D;54116;53.518;49.398;2023-02-28T14:58:27;-3.57;97.76
67186;HTU21D;54116;53.518;49.398;2023-02-28T15:00:56;-3.58;97.36
67186;HTU21D;54116;53.518;49.398;2023-02-28T15:03:34;-3.65;97.34
67186;HTU21D;54116;53.518;49.398;2023-02-28T15:06:03;-3.68;97.26
67186;HTU21D;54116;53.518;49.398;2023-02-28T15:08:31;-3.69;97.19
67186;HTU21D;54116;53.518;49.398;2023-02-28T15:16:10;-3.82;97.43
67186;HTU21D;54116;53.518;49.398;2023-02-28T15:18:48;-3.82;97.96
67186;HTU21D;54116;53.518;49.398;2023-02-28T15:21:18;-3.84;98.00
67186;HTU21D;54116;53.518;49.398;2023-02-28T15:23:49;-3.87;97.71
67186;HTU21D;54116;53.518;49.398;2023-02-28T15:26:20;-3.91;97.65
67186;HTU21D;54116;53.518;49.398;2023-02-28T15:28:50;-3.93;97.58
67186;HTU21D;54116;53.518;49.398;2023-02-28T15:31:29;-3.94;97.44
67186;HTU21D;54116;53.518;49.398;2023-02-28T15:34:03;-3.98;97.74
67186;HTU21D;54116;53.518;49.398;2023-02-28T15:36:32;-4.04;97.51
67186;HTU21D;54116;53.518;49.398;2023-02-28T15:39:00;-4.04;97.71
67186;HTU21D;54116;53.518;49.398;2023-02-28T15:41:30;-4.09;97.55
67186;HTU21D;54116;53.518;49.398;2023-02-28T15:46:45;-4.15;98.01
67186;HTU21D;54116;53.518;49.398;2023-02-28T15:49:20;-4.15;97.66
67186;HTU21D;54116;53.518;49.398;2023-02-28T15:51:51;-4.17;97.26
67186;HTU21D;54116;53.518;49.398;2023-02-28T15:54:24;-4.17;97.27
67186;HTU21D;54116;53.518;49.398;2023-02-28T15:57:00;-4.16;97.18
67186;HTU21D;54116;53.518;49.398;2023-02-28T15:59:29;-4.16;97.11
67186;HTU21D;54116;53.518;49.398;2023-02-28T16:04:37;-4.19;96.78
67186;HTU21D;54116;53.518;49.398;2023-02-28T16:07:04;-4.23;96.94
67186;HTU21D;54116;53.518;49.398;2023-02-28T16:09:31;-4.26;97.26
67186;HTU21D;54116;53.518;49.398;2023-02-28T16:12:02;-4.26;97.36
67186;HTU21D;54116;53.518;49.398;2023-02-28T16:14:30;-4.27;97.03
67186;HTU21D;54116;53.518;49.398;2023-02-28T16:17:05;-4.30;97.13
67186;HTU21D;54116;53.518;49.398;2023-02-28T16:19:32;-4.35;97.44
67186;HTU21D;54116;53.518;49.398;2023-02-28T16:21:58;-4.35;97.61
67186;HTU21D;54116;53.518;49.398;2023-02-28T16:24:24;-4.38;97.72
67186;HTU21D;54116;53.518;49.398;2023-02-28T16:26:52;-4.42;97.90
67186;HTU21D;54116;53.518;49.398;2023-02-28T16:29:27;-4.43;98.13
67186;HTU21D;54116;53.518;49.398;2023-02-28T16:31:54;-4.45;97.84
67186;HTU21D;54116;53.518;49.398;2023-02-28T16:34:21;-4.46;97.60
67186;HTU21D;54116;53.518;49.398;2023-02-28T16:36:48;-4.42;97.52
67186;HTU21D;54116;53.518;49.398;2023-02-28T16:39:15;-4.45;97.23
67186;HTU21D;54116;53.518;49.398;2023-02-28T16:41:43;-4.44;97.49
67186;HTU21D;54116;53.518;49.398;2023-02-28T16:44:26;-4.50;97.23
67186;HTU21D;54116;53.518;49.398;2023-02-28T16:46:53;-4.53;97.27
67186;HTU21D;54116;53.518;49.398;2023-02-28T16:49:21;-4.54;97.67
67186;HTU21D;54116;53.518;49.398;2023-02-28T16:51:47;-4.54;97.86
67186;HTU21D;54116;53.518;49.398;2023-02-28T16:54:14;-4.57;98.00
67186;HTU21D;54116;53.518;49.398;2023-02-28T16:56:44;-4.56;98.01
67186;HTU21D;54116;53.518;49.398;2023-02-28T16:59:11;-4.58;98.00
67186;HTU21D;54116;53.518;49.398;2023-02-28T17:02:08;-4.53;97.42
67186;HTU21D;54116;53.518;49.398;2023-02-28T17:04:36;-4.53;97.10
67186;HTU21D;54116;53.518;49.398;2023-02-28T17:07:02;-4.49;96.65
67186;HTU21D;54116;53.518;49.398;2023-02-28T17:09:28;-4.40;95.71
67186;HTU21D;54116;53.518;49.398;2023-02-28T17:11:58;-4.29;95.75
67186;HTU21D;54116;53.518;49.398;2023-02-28T17:14:25;-4.20;95.13
67186;HTU21D;54116;53.518;49.398;2023-02-28T17:16:51;-4.11;95.18
67186;HTU21D;54116;53.518;49.398;2023-02-28T17:19:17;-4.04;94.78
67186;HTU21D;54116;53.518;49.398;2023-02-28T17:21:44;-3.98;94.28
67186;HTU21D;54116;53.518;49.398;2023-02-28T17:24:11;-3.96;94.61
67186;HTU21D;54116;53.518;49.398;2023-02-28T17:26:39;-3.95;93.80
67186;HTU21D;54116;53.518;49.398;2023-02-28T17:29:24;-3.95;93.75
67186;HTU21D;54116;53.518;49.398;2023-02-28T17:31:51;-3.97;93.82
67186;HTU21D;54116;53.518;49.398;2023-02-28T17:34:17;-3.98;93.88
67186;HTU21D;54116;53.518;49.398;2023-02-28T17:36:48;-3.96;94.00
67186;HTU21D;54116;53.518;49.398;2023-02-28T17:39:16;-3.95;94.63
67186;HTU21D;54116;53.518;49.398;2023-02-28T17:41:51;-3.94;94.09
67186;HTU21D;54116;53.518;49.398;2023-02-28T17:44:19;-3.94;94.35
67186;HTU21D;54116;53.518;49.398;2023-02-28T17:46:48;-3.93;94.18
67186;HTU21D;54116;53.518;49.398;2023-02-28T17:49:16;-3.93;94.07
67186;HTU21D;54116;53.518;49.398;2023-02-28T17:51:43;-3.92;94.27
67186;HTU21D;54116;53.518;49.398;2023-02-28T17:54:09;-3.96;94.33
67186;HTU21D;54116;53.518;49.398;2023-02-28T17:56:36;-3.97;94.52
67186;HTU21D;54116;53.518;49.398;2023-02-28T17:59:03;-3.99;94.93